Time;durP1;ratioP1;P1;durP2;ratioP2;P2;SDS_P1;SDS_P2;PMS_P1;PMS_P2;Temp;Humidity;BMP_temperature;BMP_pressure;BME280_temperature;BME280_humidity;BME280_pressure;Samples;Min_cycle;Max_cycle;Signal;HPM_P1;HPM_P2
2021/11/16 00:02:16;;;;;;;5.13;1.17;;;10.00;99.90;;;;;;5090126;28;20233;-86
2021/11/16 00:04:52;;;;;;;2.27;0.57;;;10.00;99.90;;;;;;5087998;28;20199;-86
2021/11/16 00:07:24;;;;;;;2.53;0.50;;;9.90;99.90;;;;;;5077559;28;20196;-84
2021/11/16 00:09:56;;;;;;;2.53;0.70;;;9.80;99.90;;;;;;5076760;28;20271;-85
2021/11/16 00:12:28;;;;;;;4.03;0.80;;;9.60;99.90;;;;;;5069419;28;20287;-86
2021/11/16 00:15:00;;;;;;;1.93;0.50;;;9.60;99.90;;;;;;5071823;28;20255;-85
2021/11/16 00:17:31;;;;;;;2.93;0.60;;;9.50;99.90;;;;;;5074601;28;20227;-86
2021/11/16 00:20:09;;;;;;;1.00;0.60;;;9.40;99.90;;;;;;5089639;28;20271;-84
2021/11/16 00:22:45;;;;;;;2.60;0.50;;;9.40;99.90;;;;;;5075050;28;20273;-85
2021/11/16 00:38:47;;;;;;;4.63;1.00;;;9.20;99.90;;;;;;6169958;22;3209816;-84
2021/11/16 00:41:19;;;;;;;3.10;1.10;;;9.20;99.90;;;;;;6277468;22;20475;-85
2021/11/16 00:43:51;;;;;;;5.37;1.53;;;9.10;99.90;;;;;;6297472;22;20177;-86
2021/11/16 00:46:22;;;;;;;5.77;1.87;;;9.10;99.90;;;;;;6260446;22;20572;-86
2021/11/16 00:48:57;;;;;;;3.60;0.93;;;9.00;99.90;;;;;;6268930;22;20175;-86
2021/11/16 00:51:30;;;;;;;6.60;1.00;;;9.00;99.90;;;;;;6295046;22;20184;-86
2021/11/16 00:54:04;;;;;;;2.13;0.80;;;8.90;99.90;;;;;;6299452;22;20238;-86
2021/11/16 00:56:36;;;;;;;3.10;0.83;;;8.90;99.90;;;;;;6295478;22;20259;-86
2021/11/16 00:59:08;;;;;;;3.40;0.80;;;8.80;99.90;;;;;;6299472;22;20234;-86
2021/11/16 01:01:39;;;;;;;3.10;1.07;;;8.80;99.90;;;;;;6250957;22;20217;-85
2021/11/16 01:06:58;;;;;;;4.50;1.03;;;8.80;99.90;;;;;;6242714;23;20261;-85
2021/11/16 01:09:32;;;;;;;2.40;0.63;;;8.80;99.90;;;;;;6243868;23;20179;-85
2021/11/16 01:12:04;;;;;;;7.33;1.57;;;8.80;99.90;;;;;;6238617;23;20171;-86
2021/11/16 01:14:40;;;;;;;5.60;0.73;;;8.80;99.90;;;;;;6243604;23;20187;-85
2021/11/16 01:17:12;;;;;;;4.70;1.00;;;8.80;99.90;;;;;;6242622;23;20207;-85
2021/11/16 01:22:44;;;;;;;3.23;0.77;;;8.80;99.90;;;;;;6242936;23;20183;-86
2021/11/16 01:25:20;;;;;;;2.13;0.90;;;8.80;99.90;;;;;;6240715;23;20614;-86
2021/11/16 01:27:56;;;;;;;2.43;0.80;;;8.70;99.90;;;;;;6243404;23;20523;-85
2021/11/16 01:30:30;;;;;;;3.67;0.97;;;8.70;99.90;;;;;;6240355;23;20210;-86
2021/11/16 01:33:05;;;;;;;4.10;1.03;;;8.70;99.90;;;;;;6238984;23;20190;-86
2021/11/16 01:35:39;;;;;;;5.07;0.93;;;8.60;99.90;;;;;;6243962;23;20181;-85
2021/11/16 01:38:15;;;;;;;4.03;1.27;;;8.60;99.90;;;;;;6241908;23;20179;-85
2021/11/16 01:40:50;;;;;;;2.10;0.50;;;8.60;99.90;;;;;;6237379;23;20161;-86
2021/11/16 01:43:23;;;;;;;0.93;0.50;;;8.60;99.90;;;;;;6237084;23;20619;-86
2021/11/16 01:46:03;;;;;;;2.80;0.80;;;8.60;99.90;;;;;;6225985;22;20219;-85
2021/11/16 01:48:40;;;;;;;3.97;0.80;;;8.40;99.90;;;;;;6240706;23;20237;-86
2021/11/16 01:51:14;;;;;;;3.20;1.43;;;8.40;99.90;;;;;;6236626;23;20199;-85
2021/11/16 01:53:46;;;;;;;2.80;0.80;;;8.30;99.90;;;;;;6236452;23;20165;-84
2021/11/16 01:56:22;;;;;;;6.17;0.73;;;8.30;99.90;;;;;;6235411;23;20249;-84
2021/11/16 01:58:53;;;;;;;2.67;0.67;;;8.30;99.90;;;;;;6224988;23;20168;-84
2021/11/16 02:01:26;;;;;;;2.80;0.93;;;8.30;99.90;;;;;;6230594;23;20180;-85
2021/11/16 02:03:58;;;;;;;6.77;1.47;;;8.20;99.90;;;;;;6226935;23;20180;-83
2021/11/16 02:06:36;;;;;;;3.50;0.80;;;8.20;99.90;;;;;;6235774;23;20270;-85
2021/11/16 02:09:09;;;;;;;4.53;0.93;;;8.00;99.90;;;;;;6235630;23;20172;-85
2021/11/16 02:11:49;;;;;;;7.13;1.07;;;8.10;99.90;;;;;;6230939;23;20189;-86
2021/11/16 02:14:22;;;;;;;5.37;0.97;;;8.10;99.90;;;;;;6236419;23;20158;-86
2021/11/16 02:16:55;;;;;;;4.77;1.10;;;8.00;99.90;;;;;;6237141;23;20190;-86
2021/11/16 02:19:27;;;;;;;6.40;0.93;;;8.00;99.90;;;;;;6237365;23;20183;-83
2021/11/16 02:22:04;;;;;;;6.40;1.40;;;7.90;99.90;;;;;;6241723;23;20161;-84
2021/11/16 02:27:13;;;;;;;7.87;1.20;;;7.90;99.90;;;;;;6240551;22;20215;-86
2021/11/16 02:29:45;;;;;;;3.67;1.50;;;7.90;99.90;;;;;;6241074;23;20177;-85
2021/11/16 02:32:17;;;;;;;2.23;0.93;;;7.80;99.90;;;;;;6231646;23;20295;-86
2021/11/16 02:34:49;;;;;;;6.07;1.00;;;7.80;99.90;;;;;;6236333;23;20192;-85
2021/11/16 02:42:49;;;;;;;5.50;1.13;;;7.60;99.90;;;;;;6253308;22;20218;-86
2021/11/16 02:45:21;;;;;;;4.10;1.10;;;7.60;99.90;;;;;;6263106;22;20636;-86
2021/11/16 02:47:53;;;;;;;5.30;1.10;;;7.50;99.90;;;;;;6251401;23;20222;-86
2021/11/16 02:50:25;;;;;;;2.97;1.20;;;7.40;99.90;;;;;;6250448;23;20196;-86
2021/11/16 02:52:57;;;;;;;3.73;1.03;;;7.50;99.90;;;;;;6259060;23;20550;-86
2021/11/16 02:55:31;;;;;;;8.80;1.50;;;7.50;99.90;;;;;;6257362;23;20172;-87
2021/11/16 02:58:06;;;;;;;7.77;1.40;;;7.50;99.90;;;;;;6266866;22;20200;-87
2021/11/16 03:00:41;;;;;;;7.40;1.50;;;7.50;99.90;;;;;;6258131;22;20179;-86
2021/11/16 03:03:13;;;;;;;2.40;1.00;;;7.50;99.90;;;;;;6268051;23;20179;-86
2021/11/16 03:05:54;;;;;;;6.47;1.30;;;7.30;99.90;;;;;;6266146;22;20180;-86
2021/11/16 03:08:31;;;;;;;6.73;1.03;;;7.10;99.90;;;;;;6260289;22;20192;-87
2021/11/16 03:11:05;;;;;;;5.43;1.27;;;7.10;99.90;;;;;;6264559;22;20233;-85
2021/11/16 03:13:43;;;;;;;6.77;1.43;;;7.00;99.90;;;;;;6256897;22;20623;-88
2021/11/16 03:16:19;;;;;;;4.57;1.67;;;6.90;99.90;;;;;;6264197;23;20185;-87
2021/11/16 03:18:54;;;;;;;3.37;1.00;;;6.70;99.90;;;;;;6261113;22;20178;-85
2021/11/16 03:21:28;;;;;;;5.73;1.40;;;6.50;99.90;;;;;;6267766;23;20244;-85
2021/11/16 03:24:00;;;;;;;3.50;0.90;;;6.50;99.90;;;;;;6263908;23;20172;-86
2021/11/16 03:26:31;;;;;;;4.40;1.53;;;6.40;99.90;;;;;;6262744;23;20168;-85
2021/11/16 03:29:11;;;;;;;7.10;1.30;;;6.30;99.90;;;;;;6264401;22;20200;-86
2021/11/16 03:31:49;;;;;;;4.20;1.33;;;6.30;99.90;;;;;;6263163;22;20556;-86
2021/11/16 03:34:22;;;;;;;6.20;1.20;;;6.30;99.90;;;;;;6267973;22;20168;-86
2021/11/16 03:36:53;;;;;;;5.03;1.00;;;6.20;99.90;;;;;;6262914;23;20195;-84
2021/11/16 03:39:27;;;;;;;4.00;1.13;;;6.30;99.90;;;;;;6263241;23;20614;-87
2021/11/16 03:42:01;;;;;;;6.20;1.30;;;6.20;99.90;;;;;;6263279;22;20253;-86
2021/11/16 03:44:35;;;;;;;5.70;1.10;;;6.20;99.90;;;;;;6263423;23;20172;-86
2021/11/16 03:47:08;;;;;;;6.00;1.03;;;6.20;99.90;;;;;;6259891;23;20221;-87
2021/11/16 03:49:40;;;;;;;6.23;1.20;;;6.20;99.90;;;;;;6263220;22;20196;-86
2021/11/16 03:52:13;;;;;;;2.83;1.30;;;6.20;99.90;;;;;;6261494;22;20171;-86
2021/11/16 03:54:46;;;;;;;8.00;1.23;;;6.10;99.90;;;;;;6260428;23;20183;-86
2021/11/16 03:57:17;;;;;;;8.30;1.20;;;6.10;99.90;;;;;;6258509;23;20180;-86
2021/11/16 03:59:51;;;;;;;2.90;0.80;;;6.10;99.90;;;;;;6264870;22;20183;-89
2021/11/16 04:02:23;;;;;;;21.20;5.43;;;6.00;99.90;;;;;;6266262;22;20186;-87
2021/11/16 04:04:56;;;;;;;4.33;1.10;;;6.00;99.90;;;;;;6267706;22;20194;-87
2021/11/16 04:07:28;;;;;;;4.20;1.07;;;6.00;99.90;;;;;;6248563;22;20200;-87
2021/11/16 04:10:00;;;;;;;9.37;0.97;;;5.90;99.90;;;;;;6257513;22;20634;-88
2021/11/16 04:12:32;;;;;;;3.73;1.23;;;5.90;99.90;;;;;;6262749;22;20176;-86
2021/11/16 04:15:09;;;;;;;5.77;1.17;;;5.90;99.90;;;;;;6252767;22;20174;-88
2021/11/16 04:17:43;;;;;;;4.80;1.27;;;5.90;99.90;;;;;;6260123;22;20168;-86
2021/11/16 04:20:21;;;;;;;3.97;1.37;;;5.90;99.90;;;;;;6263386;23;20192;-87
2021/11/16 04:22:56;;;;;;;5.80;1.50;;;5.90;99.90;;;;;;6268340;22;20167;-87
2021/11/16 04:25:31;;;;;;;4.57;1.00;;;5.90;99.90;;;;;;6242063;22;20399;-88
2021/11/16 04:28:04;;;;;;;5.53;1.10;;;5.90;99.90;;;;;;6264972;23;20237;-87
2021/11/16 04:30:38;;;;;;;8.33;2.33;;;5.90;99.90;;;;;;6268984;23;20202;-87
2021/11/16 04:33:11;;;;;;;4.33;1.07;;;5.80;99.90;;;;;;6266552;23;20190;-87
2021/11/16 04:35:43;;;;;;;9.07;1.17;;;5.70;99.90;;;;;;6264859;22;20183;-87
2021/11/16 04:38:18;;;;;;;7.40;1.57;;;5.70;99.90;;;;;;6267757;23;20183;-87
2021/11/16 04:40:55;;;;;;;6.47;1.00;;;5.70;99.90;;;;;;6264894;22;20175;-86
2021/11/16 04:46:04;;;;;;;6.27;1.30;;;5.70;99.90;;;;;;6211765;23;20229;-85
2021/11/16 05:02:34;;;;;;;5.90;1.10;;;5.50;99.90;;;;;;6151888;23;20207;-87
2021/11/16 05:02:50;;;;;;;2.13;1.20;;;5.50;99.90;;;;;;6189843;23;20177;-88
2021/11/16 05:05:24;;;;;;;5.80;1.30;;;5.50;99.90;;;;;;6162999;23;20180;-87
2021/11/16 05:08:00;;;;;;;5.57;1.13;;;5.40;99.90;;;;;;6201976;23;20185;-87
2021/11/16 05:10:31;;;;;;;5.10;1.30;;;5.40;99.90;;;;;;6206688;23;20180;-86
2021/11/16 05:13:03;;;;;;;5.90;1.50;;;5.40;99.90;;;;;;6203576;23;20236;-88
2021/11/16 05:15:43;;;;;;;3.57;1.20;;;5.40;99.90;;;;;;6205615;23;20176;-85
2021/11/16 05:18:19;;;;;;;3.20;1.27;;;5.40;99.90;;;;;;6204843;23;20165;-86
2021/11/16 05:20:52;;;;;;;6.43;1.60;;;5.40;99.90;;;;;;6200384;23;20192;-87
2021/11/16 05:26:11;;;;;;;5.67;1.40;;;5.40;99.90;;;;;;6188609;23;20181;-88
2021/11/16 05:28:43;;;;;;;6.20;1.60;;;5.50;99.90;;;;;;6195085;23;20191;-87
2021/11/16 05:31:24;;;;;;;5.43;1.40;;;5.50;99.90;;;;;;6211530;23;20237;-86
2021/11/16 05:33:58;;;;;;;4.37;1.20;;;5.50;99.90;;;;;;6209718;23;20187;-88
2021/11/16 05:36:30;;;;;;;4.73;1.03;;;5.50;99.90;;;;;;6194176;23;20282;-87
2021/11/16 05:39:01;;;;;;;10.20;1.43;;;5.50;99.90;;;;;;6190529;23;20260;-87
2021/11/16 05:41:37;;;;;;;7.40;1.13;;;5.60;99.90;;;;;;6189940;23;20196;-87
2021/11/16 05:44:09;;;;;;;4.83;1.40;;;5.60;99.90;;;;;;6196746;23;20199;-87
2021/11/16 05:46:54;;;;;;;6.10;1.30;;;5.60;99.90;;;;;;6173752;23;20204;-88
2021/11/16 05:49:31;;;;;;;5.13;1.00;;;5.50;99.90;;;;;;6167811;23;20193;-86
2021/11/16 05:52:17;;;;;;;5.73;1.43;;;5.50;99.90;;;;;;6179683;23;20184;-86
2021/11/16 05:54:52;;;;;;;5.80;1.30;;;5.50;99.90;;;;;;6171260;23;20189;-87
2021/11/16 05:57:23;;;;;;;4.47;1.20;;;5.50;99.90;;;;;;6159915;23;20185;-87
2021/11/16 05:59:55;;;;;;;5.10;1.53;;;5.40;99.90;;;;;;6160333;23;20239;-86
2021/11/16 06:02:26;;;;;;;3.97;1.23;;;5.40;99.90;;;;;;6160074;23;20178;-87
2021/11/16 06:05:00;;;;;;;3.03;1.23;;;5.30;99.90;;;;;;6160893;23;20184;-87
2021/11/16 06:07:32;;;;;;;2.37;1.00;;;5.30;99.90;;;;;;6167622;23;20158;-85
2021/11/16 06:10:05;;;;;;;5.13;1.10;;;5.20;99.90;;;;;;6135140;23;20896;-86
2021/11/16 06:12:37;;;;;;;5.57;1.67;;;5.20;99.90;;;;;;6135022;23;20181;-86
2021/11/16 06:15:11;;;;;;;8.03;1.43;;;5.30;99.90;;;;;;6162458;23;20193;-87
2021/11/16 06:17:44;;;;;;;4.23;1.20;;;5.20;99.90;;;;;;6163208;23;20166;-86
2021/11/16 06:20:21;;;;;;;4.33;1.00;;;5.20;99.90;;;;;;6160329;23;20208;-86
2021/11/16 06:22:53;;;;;;;3.13;1.40;;;5.20;99.90;;;;;;6159548;23;20172;-86
2021/11/16 06:25:25;;;;;;;7.37;1.00;;;5.20;99.90;;;;;;6159363;23;20264;-87
2021/11/16 06:27:56;;;;;;;5.07;1.30;;;5.10;99.90;;;;;;6163475;23;20181;-86
2021/11/16 06:30:28;;;;;;;5.20;1.10;;;5.10;99.90;;;;;;6161652;23;20174;-86
2021/11/16 06:32:59;;;;;;;4.83;1.30;;;5.10;99.90;;;;;;6165995;23;20249;-86
2021/11/16 06:35:35;;;;;;;4.73;1.10;;;5.10;99.90;;;;;;6158887;23;20182;-86
2021/11/16 06:38:07;;;;;;;4.40;1.00;;;5.10;99.90;;;;;;6158573;23;20177;-87
2021/11/16 06:40:38;;;;;;;5.57;0.97;;;5.20;99.90;;;;;;6133742;23;20201;-87
2021/11/16 06:43:10;;;;;;;5.20;1.17;;;5.20;99.90;;;;;;6163110;23;20192;-86
2021/11/16 06:45:43;;;;;;;9.10;1.30;;;5.10;99.90;;;;;;6162721;23;20194;-87
2021/11/16 06:48:15;;;;;;;7.03;1.93;;;5.10;99.90;;;;;;6162768;23;20213;-86
2021/11/16 06:50:50;;;;;;;7.57;1.10;;;5.20;99.90;;;;;;6159576;23;20478;-87
2021/11/16 06:53:25;;;;;;;3.17;1.37;;;5.20;99.90;;;;;;6159896;23;20207;-86
2021/11/16 06:56:10;;;;;;;6.03;1.00;;;5.20;99.90;;;;;;6162931;23;20221;-88
2021/11/16 06:58:56;;;;;;;8.00;1.50;;;5.30;99.90;;;;;;6168607;23;20248;-88
2021/11/16 07:01:29;;;;;;;6.00;1.27;;;5.30;99.90;;;;;;6179217;23;20221;-86
2021/11/16 07:04:05;;;;;;;5.67;1.07;;;5.30;99.90;;;;;;6180822;23;20176;-85
2021/11/16 07:06:40;;;;;;;4.53;0.93;;;5.20;99.90;;;;;;6175748;23;20220;-86
2021/11/16 07:09:13;;;;;;;6.67;1.50;;;5.20;99.90;;;;;;6165092;23;20173;-86
2021/11/16 07:11:47;;;;;;;4.73;1.27;;;5.20;99.90;;;;;;6167717;23;20170;-87
2021/11/16 07:14:22;;;;;;;7.23;1.63;;;5.20;99.90;;;;;;6159743;23;20172;-87
2021/11/16 07:17:03;;;;;;;4.63;1.23;;;5.20;99.90;;;;;;6158375;23;20182;-88
2021/11/16 07:19:38;;;;;;;7.77;1.50;;;5.20;99.90;;;;;;6159726;23;20644;-88
2021/11/16 07:22:14;;;;;;;4.73;1.03;;;5.20;99.90;;;;;;6159030;23;20181;-87
2021/11/16 07:24:49;;;;;;;5.73;1.23;;;5.20;99.90;;;;;;6159208;23;20677;-88
2021/11/16 07:27:22;;;;;;;4.27;1.20;;;5.20;99.90;;;;;;6169978;23;20186;-87
2021/11/16 07:29:57;;;;;;;5.97;2.10;;;5.20;99.90;;;;;;6164791;23;20647;-88
2021/11/16 07:32:31;;;;;;;6.30;1.30;;;5.10;99.90;;;;;;6159590;23;20208;-88
2021/11/16 07:35:07;;;;;;;6.30;2.80;;;5.10;99.90;;;;;;6159216;23;20253;-89
2021/11/16 07:37:42;;;;;;;8.57;1.17;;;5.10;99.90;;;;;;6157858;23;20219;-88
2021/11/16 07:40:16;;;;;;;6.93;1.30;;;5.10;99.90;;;;;;6158808;23;20530;-86
2021/11/16 07:42:53;;;;;;;4.50;1.33;;;5.20;99.90;;;;;;6158417;23;20181;-87
2021/11/16 07:45:26;;;;;;;6.90;1.40;;;5.30;99.90;;;;;;6169872;23;20185;-85
2021/11/16 07:47:59;;;;;;;7.23;1.27;;;5.30;99.90;;;;;;6158245;23;20560;-85
2021/11/16 07:50:46;;;;;;;7.60;1.67;;;5.30;99.90;;;;;;6167037;23;20173;-85
2021/11/16 07:53:24;;;;;;;3.80;0.90;;;5.40;99.90;;;;;;6165378;23;20184;-86
2021/11/16 07:56:02;;;;;;;4.80;1.10;;;5.30;99.90;;;;;;6157468;23;20181;-87
2021/11/16 07:58:36;;;;;;;3.43;0.80;;;5.30;99.90;;;;;;6158863;23;20609;-86
2021/11/16 08:01:13;;;;;;;4.47;1.00;;;5.30;99.90;;;;;;6157572;23;20197;-85
2021/11/16 08:04:05;;;;;;;3.67;0.90;;;5.30;99.90;;;;;;6158413;23;20173;-86
2021/11/16 08:06:39;;;;;;;5.40;0.87;;;5.20;99.90;;;;;;6159376;23;20182;-87
2021/11/16 08:09:26;;;;;;;3.40;1.10;;;5.20;99.90;;;;;;6173083;23;20262;-85
2021/11/16 08:12:23;;;;;;;6.43;1.10;;;5.20;99.90;;;;;;6165001;23;20177;-86
2021/11/16 08:15:02;;;;;;;3.00;0.80;;;5.10;99.90;;;;;;6166260;23;20166;-86
2021/11/16 08:17:36;;;;;;;3.30;0.77;;;5.10;99.90;;;;;;6158600;23;20166;-86
2021/11/16 08:20:15;;;;;;;6.90;1.10;;;5.00;99.90;;;;;;6164468;23;20205;-86
2021/11/16 08:22:47;;;;;;;2.87;1.00;;;5.00;99.90;;;;;;6174377;23;20506;-87
2021/11/16 08:25:23;;;;;;;4.00;1.00;;;5.00;99.90;;;;;;6161289;23;20170;-88
2021/11/16 08:27:55;;;;;;;3.10;0.77;;;5.10;99.90;;;;;;6159718;23;20268;-86
2021/11/16 08:30:28;;;;;;;6.13;1.80;;;5.10;99.90;;;;;;6159626;23;20241;-86
2021/11/16 08:33:01;;;;;;;6.17;1.20;;;5.10;99.90;;;;;;6159244;23;20197;-86
2021/11/16 08:35:33;;;;;;;5.10;1.10;;;5.10;99.90;;;;;;6159065;23;20188;-86
2021/11/16 08:38:11;;;;;;;5.77;1.10;;;5.10;99.90;;;;;;6158761;23;20177;-85
2021/11/16 08:40:45;;;;;;;6.33;0.80;;;5.00;99.90;;;;;;6161004;23;20481;-85
2021/11/16 08:43:25;;;;;;;4.33;1.00;;;5.00;99.90;;;;;;6160162;23;20552;-85
2021/11/16 08:45:59;;;;;;;6.03;0.93;;;5.00;99.90;;;;;;6162901;23;20181;-86
2021/11/16 08:48:30;;;;;;;3.17;0.90;;;4.90;99.90;;;;;;6181142;23;20221;-86
2021/11/16 08:51:06;;;;;;;7.37;1.27;;;4.90;99.90;;;;;;6182156;23;20185;-88
2021/11/16 08:53:41;;;;;;;7.23;1.33;;;5.00;99.90;;;;;;6183369;23;20185;-86
2021/11/16 08:56:19;;;;;;;6.20;1.00;;;4.90;99.90;;;;;;6181713;23;20180;-84
2021/11/16 08:59:17;;;;;;;5.20;1.27;;;5.00;99.90;;;;;;6182914;23;20170;-86
2021/11/16 09:01:57;;;;;;;4.50;1.30;;;5.00;99.90;;;;;;6182330;23;20205;-87
2021/11/16 09:04:33;;;;;;;6.83;1.27;;;5.00;99.90;;;;;;6183642;23;20158;-85
2021/11/16 09:07:18;;;;;;;5.20;1.40;;;5.00;99.90;;;;;;6225821;22;20259;-85
2021/11/16 09:10:00;;;;;;;7.37;1.10;;;5.00;99.90;;;;;;6242208;22;20157;-87
2021/11/16 09:12:45;;;;;;;6.43;1.10;;;4.90;99.90;;;;;;6239567;23;20176;-84
2021/11/16 09:15:22;;;;;;;5.97;1.03;;;5.00;99.90;;;;;;6232934;23;20165;-87
2021/11/16 09:18:13;;;;;;;5.20;1.10;;;5.00;99.90;;;;;;6234169;23;20179;-87
2021/11/16 09:20:46;;;;;;;3.73;0.93;;;5.00;99.90;;;;;;6232859;23;20210;-86
2021/11/16 09:23:26;;;;;;;4.43;1.03;;;5.00;99.90;;;;;;6232685;23;20264;-86
2021/11/16 09:26:16;;;;;;;11.33;2.30;;;5.00;99.90;;;;;;6205430;23;20196;-87
2021/11/16 09:28:52;;;;;;;5.00;1.30;;;5.00;99.90;;;;;;6225920;23;20251;-86
2021/11/16 09:31:29;;;;;;;7.93;1.30;;;5.10;99.90;;;;;;6225253;23;20180;-85
2021/11/16 09:34:06;;;;;;;9.00;1.30;;;5.00;99.90;;;;;;6224912;23;20192;-85
2021/11/16 09:36:39;;;;;;;3.40;0.90;;;5.00;99.90;;;;;;6221065;23;20247;-86
2021/11/16 09:39:16;;;;;;;4.43;1.00;;;5.00;99.90;;;;;;6222559;23;20165;-85
2021/11/16 09:41:52;;;;;;;4.63;1.10;;;5.00;99.90;;;;;;6221553;23;20581;-85
2021/11/16 09:44:28;;;;;;;3.83;1.37;;;5.10;99.90;;;;;;6221187;23;20172;-85
2021/11/16 09:47:01;;;;;;;7.07;1.13;;;5.10;99.90;;;;;;6220344;23;20176;-86
2021/11/16 09:49:37;;;;;;;7.10;1.00;;;5.10;99.90;;;;;;6221647;23;20642;-87
2021/11/16 09:52:09;;;;;;;9.43;1.27;;;5.20;99.90;;;;;;6221344;23;20183;-85
2021/11/16 09:54:53;;;;;;;5.20;0.77;;;5.20;99.90;;;;;;6219820;23;20252;-86
2021/11/16 09:57:29;;;;;;;6.00;1.23;;;5.20;99.90;;;;;;6220647;23;20243;-85
2021/11/16 10:00:10;;;;;;;8.17;0.90;;;5.20;99.90;;;;;;6220811;23;20178;-86
2021/11/16 10:02:44;;;;;;;7.10;1.10;;;5.20;99.90;;;;;;6220287;23;20255;-85
2021/11/16 10:05:20;;;;;;;1.43;0.80;;;5.30;99.90;;;;;;6217653;23;20183;-86
2021/11/16 10:07:55;;;;;;;7.77;1.27;;;5.30;99.90;;;;;;6221252;23;20194;-86
2021/11/16 10:10:30;;;;;;;4.07;0.70;;;5.30;99.90;;;;;;6194301;23;20259;-85
2021/11/16 10:13:04;;;;;;;5.63;1.20;;;5.30;99.90;;;;;;6219684;23;20195;-87
2021/11/16 10:15:40;;;;;;;9.07;1.07;;;5.30;99.90;;;;;;6219379;23;20506;-87
2021/11/16 10:18:15;;;;;;;4.43;1.10;;;5.30;99.90;;;;;;6221060;23;20554;-86
2021/11/16 10:20:48;;;;;;;4.67;1.27;;;5.30;99.90;;;;;;6220641;23;20554;-86
2021/11/16 10:23:31;;;;;;;4.50;1.03;;;5.30;99.90;;;;;;6221054;23;20171;-86
2021/11/16 10:26:04;;;;;;;5.60;0.93;;;5.30;99.90;;;;;;6196410;23;20173;-84
2021/11/16 10:28:37;;;;;;;6.20;1.43;;;5.30;99.90;;;;;;6220673;23;20611;-85
2021/11/16 10:31:12;;;;;;;7.73;1.40;;;5.20;99.90;;;;;;6220459;23;20168;-85
2021/11/16 10:33:46;;;;;;;4.10;1.17;;;5.20;99.90;;;;;;6221124;23;20622;-85
2021/11/16 10:36:20;;;;;;;4.87;1.13;;;5.10;99.90;;;;;;6222117;23;20180;-86
2021/11/16 10:38:57;;;;;;;6.23;1.30;;;5.10;99.90;;;;;;6220690;23;20251;-88
2021/11/16 10:41:31;;;;;;;3.60;0.97;;;5.10;99.90;;;;;;6220781;23;20196;-87
2021/11/16 10:44:05;;;;;;;5.33;1.07;;;5.00;99.90;;;;;;6220580;23;20175;-85
2021/11/16 10:46:42;;;;;;;9.83;1.93;;;5.00;99.90;;;;;;6194322;23;20195;-85
2021/11/16 10:49:16;;;;;;;5.17;1.00;;;5.00;99.90;;;;;;6219970;23;20247;-85
2021/11/16 10:51:50;;;;;;;4.60;1.00;;;4.90;99.90;;;;;;6220229;23;20175;-86
2021/11/16 10:54:23;;;;;;;12.80;2.73;;;4.80;99.90;;;;;;6220088;23;20243;-86
2021/11/16 10:57:00;;;;;;;5.97;1.20;;;4.90;99.90;;;;;;6219761;23;20177;-86
2021/11/16 10:59:35;;;;;;;2.73;0.90;;;4.80;99.90;;;;;;6220621;23;20179;-86
2021/11/16 11:02:19;;;;;;;3.73;0.80;;;4.70;99.90;;;;;;6220045;23;20235;-86
2021/11/16 11:04:51;;;;;;;7.33;1.30;;;4.70;99.90;;;;;;6219838;23;20165;-87
2021/11/16 11:07:26;;;;;;;7.30;2.27;;;4.60;99.90;;;;;;6222060;23;20192;-86
2021/11/16 11:10:00;;;;;;;4.33;1.00;;;4.60;99.90;;;;;;6199694;23;20171;-87
2021/11/16 11:12:33;;;;;;;5.77;1.23;;;4.60;99.90;;;;;;6219645;23;20518;-87
2021/11/16 11:15:05;;;;;;;4.57;2.20;;;4.60;99.90;;;;;;6220035;23;20165;-92
2021/11/16 11:17:40;;;;;;;11.53;1.30;;;4.50;99.90;;;;;;6219907;23;20577;-89
2021/11/16 11:20:19;;;;;;;7.13;1.10;;;4.50;99.90;;;;;;6220138;23;20179;-86
2021/11/16 11:22:51;;;;;;;5.87;1.30;;;4.50;99.90;;;;;;6218902;23;20204;-87
2021/11/16 11:25:37;;;;;;;4.70;1.00;;;4.50;99.90;;;;;;6219828;23;20247;-88
2021/11/16 11:28:29;;;;;;;4.10;0.70;;;4.40;99.90;;;;;;6195328;23;20176;-88
2021/11/16 11:31:03;;;;;;;5.83;0.87;;;4.40;99.90;;;;;;6231036;23;20187;-88
2021/11/16 11:33:52;;;;;;;6.27;1.47;;;4.40;99.90;;;;;;6229529;23;20171;-87
2021/11/16 11:36:27;;;;;;;5.57;1.37;;;4.40;99.90;;;;;;6227959;23;20212;-87
2021/11/16 11:38:58;;;;;;;4.67;1.20;;;4.40;99.90;;;;;;6221497;23;20183;-86
2021/11/16 11:41:47;;;;;;;6.57;1.00;;;4.40;99.90;;;;;;6221290;23;20218;-87
2021/11/16 11:44:20;;;;;;;2.90;0.93;;;4.40;99.90;;;;;;6193631;23;20183;-88
2021/11/16 11:46:57;;;;;;;6.60;1.67;;;4.40;99.90;;;;;;6218137;23;20174;-89
2021/11/16 11:49:32;;;;;;;3.77;0.80;;;4.40;99.90;;;;;;6218142;23;20237;-88
2021/11/16 11:52:05;;;;;;;3.10;1.00;;;4.30;99.90;;;;;;6218119;23;20256;-87
2021/11/16 11:54:41;;;;;;;4.87;0.90;;;4.30;99.90;;;;;;6218290;23;20176;-88
2021/11/16 11:57:13;;;;;;;3.30;1.20;;;4.30;99.90;;;;;;6218591;23;20199;-89
2021/11/16 11:59:45;;;;;;;5.20;1.30;;;4.30;99.90;;;;;;6219427;23;20299;-88
2021/11/16 12:02:19;;;;;;;4.13;1.30;;;4.30;99.90;;;;;;6218779;23;20208;-87
2021/11/16 12:04:54;;;;;;;3.47;0.90;;;4.40;99.90;;;;;;6218612;23;20183;-88
2021/11/16 12:07:28;;;;;;;7.97;2.27;;;4.40;99.90;;;;;;6218823;23;20245;-88
2021/11/16 12:10:00;;;;;;;5.20;1.10;;;4.40;99.90;;;;;;6217909;23;20172;-87
2021/11/16 12:12:31;;;;;;;11.67;1.70;;;4.40;99.90;;;;;;6218441;23;20176;-87
2021/11/16 12:15:10;;;;;;;5.33;1.00;;;4.40;99.90;;;;;;6218491;23;20255;-87
2021/11/16 12:17:52;;;;;;;7.07;1.20;;;4.40;99.90;;;;;;6194332;23;20174;-88
2021/11/16 12:20:41;;;;;;;7.90;0.73;;;4.40;99.90;;;;;;6218737;23;20203;-89
2021/11/16 12:23:15;;;;;;;6.90;1.00;;;4.40;99.90;;;;;;6217839;23;20206;-88
2021/11/16 12:25:49;;;;;;;7.50;1.23;;;4.30;99.90;;;;;;6216357;23;20191;-87
2021/11/16 12:28:41;;;;;;;3.33;0.80;;;4.30;99.90;;;;;;6218070;23;20521;-86
2021/11/16 12:31:25;;;;;;;3.27;1.10;;;4.30;99.90;;;;;;6218214;23;20170;-86
2021/11/16 12:33:57;;;;;;;4.40;1.03;;;4.30;99.90;;;;;;6219676;23;20176;-88
2021/11/16 12:36:51;;;;;;;10.53;1.17;;;4.30;99.90;;;;;;6218230;23;20251;-87
2021/11/16 12:39:25;;;;;;;4.50;1.17;;;4.30;99.90;;;;;;6218324;23;20191;-88
2021/11/16 12:42:09;;;;;;;3.57;1.10;;;4.30;99.90;;;;;;6218044;23;20169;-89
2021/11/16 12:44:50;;;;;;;7.33;1.00;;;4.30;99.90;;;;;;6217754;23;20183;-89
2021/11/16 12:47:23;;;;;;;4.70;1.23;;;4.30;99.90;;;;;;6217084;23;20175;-88
2021/11/16 12:50:08;;;;;;;4.00;1.00;;;4.40;99.90;;;;;;6217823;23;20523;-88
2021/11/16 12:52:50;;;;;;;6.50;1.10;;;4.30;99.90;;;;;;6221918;23;20172;-88
2021/11/16 12:55:25;;;;;;;5.60;1.10;;;4.30;99.90;;;;;;6217000;23;20627;-86
2021/11/16 12:57:59;;;;;;;6.67;1.30;;;4.30;99.90;;;;;;6218836;23;20171;-87
2021/11/16 13:00:37;;;;;;;4.37;1.30;;;4.30;99.90;;;;;;6218725;23;20278;-87
2021/11/16 13:03:10;;;;;;;4.97;1.20;;;4.30;99.90;;;;;;6193343;23;20219;-88
2021/11/16 13:05:45;;;;;;;5.27;1.37;;;4.30;99.90;;;;;;6218316;23;20207;-88
2021/11/16 13:08:31;;;;;;;3.77;1.00;;;4.40;99.90;;;;;;6218109;23;20979;-86
2021/11/16 13:11:11;;;;;;;4.50;1.20;;;4.40;99.90;;;;;;6192287;23;20164;-87
2021/11/16 13:13:48;;;;;;;3.53;1.10;;;4.40;99.90;;;;;;6220645;23;20485;-87
2021/11/16 13:16:34;;;;;;;4.27;1.20;;;4.50;99.90;;;;;;6221469;22;20161;-87
2021/11/16 13:19:23;;;;;;;4.67;1.00;;;4.50;99.90;;;;;;6217920;23;20211;-86
2021/11/16 13:22:43;;;;;;;5.37;1.03;;;4.50;99.90;;;;;;6217778;23;20187;-86
2021/11/16 13:25:53;;;;;;;7.23;1.20;;;4.60;99.90;;;;;;6217751;23;20618;-86
2021/11/16 13:31:57;;;;;;;7.97;1.37;;;4.70;99.90;;;;;;6218563;23;20635;-85
2021/11/16 13:35:05;;;;;;;5.30;1.10;;;4.80;99.90;;;;;;6219373;23;20510;-86
2021/11/16 13:37:57;;;;;;;3.23;1.20;;;4.80;99.90;;;;;;6222140;23;20184;-86
2021/11/16 13:40:33;;;;;;;8.57;1.10;;;4.80;99.90;;;;;;6222064;23;20175;-85
2021/11/16 13:43:22;;;;;;;7.07;1.27;;;4.90;99.90;;;;;;6220909;23;20213;-86
2021/11/16 13:46:02;;;;;;;6.77;1.40;;;4.90;99.90;;;;;;6229816;23;20165;-85
2021/11/16 13:48:39;;;;;;;4.87;1.07;;;4.90;99.90;;;;;;6241263;23;20184;-87
2021/11/16 13:51:23;;;;;;;6.70;1.40;;;4.90;99.90;;;;;;6237838;22;20226;-86
2021/11/16 13:54:04;;;;;;;4.67;1.30;;;4.90;99.90;;;;;;6233008;23;20172;-86
2021/11/16 13:59:38;;;;;;;6.80;0.97;;;4.90;99.90;;;;;;6237718;23;20222;-86
2021/11/16 14:02:26;;;;;;;7.43;1.07;;;4.90;99.90;;;;;;6227301;23;20160;-86
2021/11/16 14:05:09;;;;;;;6.30;1.20;;;4.90;99.90;;;;;;6222337;23;20274;-86
2021/11/16 14:08:08;;;;;;;6.20;1.87;;;4.90;99.90;;;;;;6221355;23;20165;-87
2021/11/16 14:13:39;;;;;;;6.33;1.20;;;5.00;99.90;;;;;;6221283;23;20233;-88
2021/11/16 14:16:26;;;;;;;4.23;1.13;;;4.90;99.90;;;;;;6219598;23;20666;-86
2021/11/16 14:19:08;;;;;;;9.47;1.50;;;4.90;99.90;;;;;;6220110;23;20204;-87
2021/11/16 14:21:53;;;;;;;5.10;1.37;;;4.90;99.90;;;;;;6220428;23;20165;-86
2021/11/16 14:24:39;;;;;;;5.67;1.10;;;4.90;99.90;;;;;;6220050;23;20208;-85
2021/11/16 14:27:42;;;;;;;6.50;1.23;;;4.90;99.90;;;;;;6220179;23;20649;-86
2021/11/16 14:30:17;;;;;;;6.53;1.20;;;4.80;99.90;;;;;;6220196;23;20251;-86
2021/11/16 14:33:11;;;;;;;6.87;2.00;;;4.80;99.90;;;;;;6221221;23;20227;-87
2021/11/16 14:36:01;;;;;;;7.87;1.27;;;4.80;99.90;;;;;;6219061;23;20569;-88
2021/11/16 14:38:39;;;;;;;4.77;1.20;;;4.70;99.90;;;;;;6218455;23;20263;-87
2021/11/16 14:41:15;;;;;;;3.93;0.77;;;4.70;99.90;;;;;;6220038;23;20271;-87